Blanch, NC (27212)

03:17 PM EST am 03. März 2015 (GMT -0500)
KVARINGG5 | Change Station
CLOSE
Current Station
Persönliche Wetterstationen
Location: Ringgold, VA
Höhe: 500 ft
Wetterstationen in der Umgebung

Höhe 500 ft 36.58 °N, 79.27 °W | Updated 2 minutes ago

Bedeckt
Bedeckt
36.7 °F
gefühlte 37 °F
N
3.0
Wind Wechselnd Wind aus West-Südwest
Gusts 5.0 mph

Heute
Max. -- | schwach -- °F
--% Regenrisiko
Gestern
Max. -- | schwach -- °F
Precip. -- inch
6:45 AM 6:13 PM
Zweites Viertel, 97% visible
Druck 30.25 inch
Sichtweite 9.0 Meilen
Wolken Bedeckt 2100 ft
Windchill 37 °F
Taupunkt 31 °F
Feuchtigkeit 79%
Regen 0.00 inch
Schneehöhe Nicht verfügbar..
UV 1 von 12
Pollen 2.70 von 12
Luftqualität Nicht verfügbar..
Flu Activity Nicht verfügbar..
METAR KDAN 031953Z AUTO 26007KT 9SM OVC021 03/M02 A3025 RMK AO2 SLP241 T00331022

More Conditions Fewer Conditions

Druck 30.25 inch
Sichtweite 9.0 Meilen
Wolken Bedeckt 2100 ft
Windchill 37 °F
Taupunkt 31 °F
Feuchtigkeit 79%
Regen 0.00 inch
Schneehöhe Nicht verfügbar..
UV 1 von 12
Pollen 2.70 von 12
Luftqualität Nicht verfügbar..
Flu Activity Nicht verfügbar..
METAR KDAN 031953Z AUTO 26007KT 9SM OVC021 03/M02 A3025 RMK AO2 SLP241 T00331022

More Conditions Fewer Conditions

10-Day Weather Forecast

Almanac

Astronomie

Mar. 03, 2015 Aufgang Untergang
Genaue Zeit
Bürgerliche Dämmerung
Nautische Dämmerung
Astronomische Dämmerung
Mond
Länge des sichtbaren Lichts
Tageslänge
Tomorrow will be .
, % of the Moon is Illuminated

Heutige Rekorde

State Highs State Lows

Community

WunderPhotos

Upload Photos

1,802,225 Fotos hochgeladen!

WunderBlogs® & News

Nearby

Luftqualität

  Luftqualität LQ Index Schadstoff
Not available.

Schneehöhe

Station Depth Höhe

Erdbebenaktivität

Stadt Distance Mag. Time & Date
Minimum magnitude displayed is 2.5.

küstennahe Wassertemperaturen

Ort Temperatur

Wetterstationen in der Umgebung